sensor_id;sensor_type;location;lat;lon;timestamp;temperature;humidity
1453;DHT22;720;47.738;7.998;2023-12-22T00:01:29;7.10;99.90
1453;DHT22;720;47.738;7.998;2023-12-22T00:03:55;7.10;99.90
1453;DHT22;720;47.738;7.998;2023-12-22T00:06:20;7.10;99.90
1453;DHT22;720;47.738;7.998;2023-12-22T00:08:46;7.10;99.90
1453;DHT22;720;47.738;7.998;2023-12-22T00:11:12;7.10;99.90
1453;DHT22;720;47.738;7.998;2023-12-22T00:13:37;7.10;99.90
1453;DHT22;720;47.738;7.998;2023-12-22T00:16:03;7.10;99.90
1453;DHT22;720;47.738;7.998;2023-12-22T00:18:29;7.10;99.90
1453;DHT22;720;47.738;7.998;2023-12-22T00:20:56;7.00;99.90
1453;DHT22;720;47.738;7.998;2023-12-22T00:23:21;7.00;99.90
1453;DHT22;720;47.738;7.998;2023-12-22T00:25:47;7.00;99.90
1453;DHT22;720;47.738;7.998;2023-12-22T00:28:13;6.70;99.90
1453;DHT22;720;47.738;7.998;2023-12-22T00:30:38;6.50;99.90
1453;DHT22;720;47.738;7.998;2023-12-22T00:33:04;6.40;99.90
1453;DHT22;720;47.738;7.998;2023-12-22T00:35:29;6.50;99.90
1453;DHT22;720;47.738;7.998;2023-12-22T00:37:55;6.50;99.90
1453;DHT22;720;47.738;7.998;2023-12-22T00:40:21;6.40;99.90
1453;DHT22;720;47.738;7.998;2023-12-22T00:42:46;6.20;99.90
1453;DHT22;720;47.738;7.998;2023-12-22T00:45:12;6.10;99.90
1453;DHT22;720;47.738;7.998;2023-12-22T00:47:37;6.30;99.90
1453;DHT22;720;47.738;7.998;2023-12-22T00:50:04;6.20;99.90
1453;DHT22;720;47.738;7.998;2023-12-22T00:52:31;6.10;99.90
1453;DHT22;720;47.738;7.998;2023-12-22T00:54:57;6.10;99.90
1453;DHT22;720;47.738;7.998;2023-12-22T00:57:23;6.20;99.90
1453;DHT22;720;47.738;7.998;2023-12-22T00:59:48;6.10;99.90
1453;DHT22;720;47.738;7.998;2023-12-22T01:02:15;6.10;99.90
1453;DHT22;720;47.738;7.998;2023-12-22T01:04:40;6.20;99.90
1453;DHT22;720;47.738;7.998;2023-12-22T01:07:10;6.20;99.90
1453;DHT22;720;47.738;7.998;2023-12-22T01:09:36;6.30;99.90
1453;DHT22;720;47.738;7.998;2023-12-22T01:12:03;6.40;99.90
1453;DHT22;720;47.738;7.998;2023-12-22T01:14:29;6.40;99.90
1453;DHT22;720;47.738;7.998;2023-12-22T01:16:55;6.40;99.90
1453;DHT22;720;47.738;7.998;2023-12-22T01:19:21;6.50;99.90
1453;DHT22;720;47.738;7.998;2023-12-22T01:21:46;6.50;99.90
1453;DHT22;720;47.738;7.998;2023-12-22T01:24:12;6.50;99.90
1453;DHT22;720;47.738;7.998;2023-12-22T01:26:38;6.50;99.90
1453;DHT22;720;47.738;7.998;2023-12-22T01:29:03;6.50;99.90
1453;DHT22;720;47.738;7.998;2023-12-22T01:31:31;6.60;99.90
1453;DHT22;720;47.738;7.998;2023-12-22T01:33:57;6.60;99.90
1453;DHT22;720;47.738;7.998;2023-12-22T01:36:22;6.40;99.90
1453;DHT22;720;47.738;7.998;2023-12-22T01:38:48;6.30;99.90
1453;DHT22;720;47.738;7.998;2023-12-22T01:41:16;6.30;99.90
1453;DHT22;720;47.738;7.998;2023-12-22T01:43:42;6.40;99.90
1453;DHT22;720;47.738;7.998;2023-12-22T01:46:08;6.50;99.90
1453;DHT22;720;47.738;7.998;2023-12-22T01:48:36;6.40;99.90
1453;DHT22;720;47.738;7.998;2023-12-22T01:51:02;6.50;99.90
1453;DHT22;720;47.738;7.998;2023-12-22T01:53:28;6.50;99.90
1453;DHT22;720;47.738;7.998;2023-12-22T01:55:55;6.40;99.90
1453;DHT22;720;47.738;7.998;2023-12-22T01:58:23;6.40;99.90
1453;DHT22;720;47.738;7.998;2023-12-22T02:00:49;6.50;99.90
1453;DHT22;720;47.738;7.998;2023-12-22T02:03:15;6.50;99.90
1453;DHT22;720;47.738;7.998;2023-12-22T02:05:42;6.50;99.90
1453;DHT22;720;47.738;7.998;2023-12-22T02:08:09;6.60;99.90
1453;DHT22;720;47.738;7.998;2023-12-22T02:10:35;6.50;99.90
1453;DHT22;720;47.738;7.998;2023-12-22T02:13:01;6.40;99.90
1453;DHT22;720;47.738;7.998;2023-12-22T02:15:27;6.40;99.90
1453;DHT22;720;47.738;7.998;2023-12-22T02:18:02;6.40;99.90
1453;DHT22;720;47.738;7.998;2023-12-22T02:20:30;6.40;99.90
1453;DHT22;720;47.738;7.998;2023-12-22T02:22:57;6.50;99.90
1453;DHT22;720;47.738;7.998;2023-12-22T02:25:22;6.40;99.90
1453;DHT22;720;47.738;7.998;2023-12-22T02:27:49;6.40;99.90
1453;DHT22;720;47.738;7.998;2023-12-22T02:30:29;6.60;99.90
1453;DHT22;720;47.738;7.998;2023-12-22T02:32:59;6.70;99.90
1453;DHT22;720;47.738;7.998;2023-12-22T02:35:28;6.50;99.90
1453;DHT22;720;47.738;7.998;2023-12-22T02:37:56;6.50;99.90
1453;DHT22;720;47.738;7.998;2023-12-22T02:40:23;6.30;99.90
1453;DHT22;720;47.738;7.998;2023-12-22T02:42:50;6.40;99.90
1453;DHT22;720;47.738;7.998;2023-12-22T02:45:18;6.40;99.90
1453;DHT22;720;47.738;7.998;2023-12-22T02:47:44;6.50;99.90
1453;DHT22;720;47.738;7.998;2023-12-22T02:50:12;6.50;99.90
1453;DHT22;720;47.738;7.998;2023-12-22T02:52:38;6.40;99.90
1453;DHT22;720;47.738;7.998;2023-12-22T02:55:04;6.10;99.90
1453;DHT22;720;47.738;7.998;2023-12-22T02:57:30;6.00;99.90
1453;DHT22;720;47.738;7.998;2023-12-22T02:59:56;6.10;99.90
1453;DHT22;720;47.738;7.998;2023-12-22T03:02:22;6.30;99.90
1453;DHT22;720;47.738;7.998;2023-12-22T03:04:48;6.40;99.90
1453;DHT22;720;47.738;7.998;2023-12-22T03:07:14;6.50;99.90
1453;DHT22;720;47.738;7.998;2023-12-22T03:09:40;6.50;99.90
1453;DHT22;720;47.738;7.998;2023-12-22T03:12:07;6.40;99.90
1453;DHT22;720;47.738;7.998;2023-12-22T03:14:33;6.50;99.90
1453;DHT22;720;47.738;7.998;2023-12-22T03:16:59;6.60;99.90
1453;DHT22;720;47.738;7.998;2023-12-22T03:19:25;6.50;99.90
1453;DHT22;720;47.738;7.998;2023-12-22T03:21:51;6.50;99.90
1453;DHT22;720;47.738;7.998;2023-12-22T03:24:17;6.60;99.90
1453;DHT22;720;47.738;7.998;2023-12-22T03:26:45;6.70;99.90
1453;DHT22;720;47.738;7.998;2023-12-22T03:29:11;6.60;99.90
1453;DHT22;720;47.738;7.998;2023-12-22T03:31:36;6.20;99.90
1453;DHT22;720;47.738;7.998;2023-12-22T03:34:02;5.80;99.90
1453;DHT22;720;47.738;7.998;2023-12-22T03:36:28;5.70;99.90
1453;DHT22;720;47.738;7.998;2023-12-22T03:38:54;5.80;99.90
1453;DHT22;720;47.738;7.998;2023-12-22T03:41:19;6.00;99.90
1453;DHT22;720;47.738;7.998;2023-12-22T03:43:45;6.20;99.90
1453;DHT22;720;47.738;7.998;2023-12-22T03:46:11;6.20;99.90
1453;DHT22;720;47.738;7.998;2023-12-22T03:48:37;6.30;99.90
1453;DHT22;720;47.738;7.998;2023-12-22T03:51:02;6.30;99.90
1453;DHT22;720;47.738;7.998;2023-12-22T03:53:28;6.30;99.90
1453;DHT22;720;47.738;7.998;2023-12-22T03:55:54;6.30;99.90
1453;DHT22;720;47.738;7.998;2023-12-22T03:58:20;6.30;99.90
1453;DHT22;720;47.738;7.998;2023-12-22T04:00:45;6.30;99.90
1453;DHT22;720;47.738;7.998;2023-12-22T04:03:11;6.30;99.90
1453;DHT22;720;47.738;7.998;2023-12-22T04:05:36;6.20;99.90
1453;DHT22;720;47.738;7.998;2023-12-22T04:08:02;6.30;99.90
1453;DHT22;720;47.738;7.998;2023-12-22T04:10:28;6.10;99.90
1453;DHT22;720;47.738;7.998;2023-12-22T04:12:54;6.10;99.90
1453;DHT22;720;47.738;7.998;2023-12-22T04:15:19;6.20;99.90
1453;DHT22;720;47.738;7.998;2023-12-22T04:17:45;6.20;99.90
1453;DHT22;720;47.738;7.998;2023-12-22T04:20:11;6.30;99.90
1453;DHT22;720;47.738;7.998;2023-12-22T04:22:37;6.30;99.90
1453;DHT22;720;47.738;7.998;2023-12-22T04:25:03;6.30;99.90
1453;DHT22;720;47.738;7.998;2023-12-22T04:27:29;6.20;99.90
1453;DHT22;720;47.738;7.998;2023-12-22T04:29:54;6.20;99.90
1453;DHT22;720;47.738;7.998;2023-12-22T04:32:20;6.10;99.90
1453;DHT22;720;47.738;7.998;2023-12-22T04:34:46;6.20;99.90
1453;DHT22;720;47.738;7.998;2023-12-22T04:37:11;6.10;99.90
1453;DHT22;720;47.738;7.998;2023-12-22T04:39:37;6.00;99.90
1453;DHT22;720;47.738;7.998;2023-12-22T04:42:02;6.00;99.90
1453;DHT22;720;47.738;7.998;2023-12-22T04:44:28;6.00;99.90
1453;DHT22;720;47.738;7.998;2023-12-22T04:46:54;6.10;99.90
1453;DHT22;720;47.738;7.998;2023-12-22T04:49:19;5.90;99.90
1453;DHT22;720;47.738;7.998;2023-12-22T04:51:45;5.80;99.90
1453;DHT22;720;47.738;7.998;2023-12-22T04:54:11;5.90;99.90
1453;DHT22;720;47.738;7.998;2023-12-22T04:56:36;6.00;99.90
1453;DHT22;720;47.738;7.998;2023-12-22T04:59:02;6.00;99.90
1453;DHT22;720;47.738;7.998;2023-12-22T05:01:28;6.00;99.90
1453;DHT22;720;47.738;7.998;2023-12-22T05:03:53;6.00;99.90
1453;DHT22;720;47.738;7.998;2023-12-22T05:06:19;5.80;99.90
1453;DHT22;720;47.738;7.998;2023-12-22T05:08:45;5.80;99.90
1453;DHT22;720;47.738;7.998;2023-12-22T05:11:12;5.80;99.90
1453;DHT22;720;47.738;7.998;2023-12-22T05:13:38;5.90;99.90
1453;DHT22;720;47.738;7.998;2023-12-22T05:16:03;6.00;99.90
1453;DHT22;720;47.738;7.998;2023-12-22T05:18:30;5.80;99.90
1453;DHT22;720;47.738;7.998;2023-12-22T05:20:55;5.70;99.90
1453;DHT22;720;47.738;7.998;2023-12-22T05:23:21;5.80;99.90
1453;DHT22;720;47.738;7.998;2023-12-22T05:25:47;5.90;99.90
1453;DHT22;720;47.738;7.998;2023-12-22T05:28:12;6.00;99.90
1453;DHT22;720;47.738;7.998;2023-12-22T05:30:38;6.00;99.90
1453;DHT22;720;47.738;7.998;2023-12-22T05:33:04;6.10;99.90
1453;DHT22;720;47.738;7.998;2023-12-22T05:35:29;6.00;99.90
1453;DHT22;720;47.738;7.998;2023-12-22T05:37:55;5.90;99.90
1453;DHT22;720;47.738;7.998;2023-12-22T05:40:20;5.90;99.90
1453;DHT22;720;47.738;7.998;2023-12-22T05:42:46;5.70;99.90
1453;DHT22;720;47.738;7.998;2023-12-22T05:45:13;5.70;99.90
1453;DHT22;720;47.738;7.998;2023-12-22T05:47:39;5.80;99.90
1453;DHT22;720;47.738;7.998;2023-12-22T05:50:05;5.70;99.90
1453;DHT22;720;47.738;7.998;2023-12-22T05:52:31;5.80;99.90
1453;DHT22;720;47.738;7.998;2023-12-22T05:54:56;5.80;99.90
1453;DHT22;720;47.738;7.998;2023-12-22T05:57:24;5.80;99.90
1453;DHT22;720;47.738;7.998;2023-12-22T05:59:50;5.90;99.90
1453;DHT22;720;47.738;7.998;2023-12-22T06:02:16;5.90;99.90
1453;DHT22;720;47.738;7.998;2023-12-22T06:04:41;5.90;99.90
1453;DHT22;720;47.738;7.998;2023-12-22T06:07:07;5.90;99.90
1453;DHT22;720;47.738;7.998;2023-12-22T06:09:32;5.90;99.90
1453;DHT22;720;47.738;7.998;2023-12-22T06:11:58;6.00;99.90
1453;DHT22;720;47.738;7.998;2023-12-22T06:14:24;6.00;99.90
1453;DHT22;720;47.738;7.998;2023-12-22T06:16:49;6.00;99.90
1453;DHT22;720;47.738;7.998;2023-12-22T06:19:16;5.90;99.90
1453;DHT22;720;47.738;7.998;2023-12-22T06:21:42;5.90;99.90
1453;DHT22;720;47.738;7.998;2023-12-22T06:24:07;5.80;99.90
1453;DHT22;720;47.738;7.998;2023-12-22T06:26:33;5.90;99.90
1453;DHT22;720;47.738;7.998;2023-12-22T06:28:59;5.90;99.90
1453;DHT22;720;47.738;7.998;2023-12-22T06:31:25;6.00;99.90
1453;DHT22;720;47.738;7.998;2023-12-22T06:33:51;5.90;99.90
1453;DHT22;720;47.738;7.998;2023-12-22T06:36:24;5.80;99.90
1453;DHT22;720;47.738;7.998;2023-12-22T06:38:53;5.80;99.90
1453;DHT22;720;47.738;7.998;2023-12-22T06:41:26;5.70;99.90
1453;DHT22;720;47.738;7.998;2023-12-22T06:43:53;5.70;99.90
1453;DHT22;720;47.738;7.998;2023-12-22T06:46:19;5.80;99.90
1453;DHT22;720;47.738;7.998;2023-12-22T06:48:45;5.80;99.90
1453;DHT22;720;47.738;7.998;2023-12-22T06:51:22;5.80;99.90
1453;DHT22;720;47.738;7.998;2023-12-22T06:53:48;5.90;99.90
1453;DHT22;720;47.738;7.998;2023-12-22T06:56:25;5.80;99.90
1453;DHT22;720;47.738;7.998;2023-12-22T06:58:53;5.80;99.90
1453;DHT22;720;47.738;7.998;2023-12-22T07:03:49;5.90;99.90
1453;DHT22;720;47.738;7.998;2023-12-22T07:06:17;5.90;99.90
1453;DHT22;720;47.738;7.998;2023-12-22T07:08:43;5.90;99.90
1453;DHT22;720;47.738;7.998;2023-12-22T07:11:10;5.70;99.90
1453;DHT22;720;47.738;7.998;2023-12-22T07:13:38;5.80;99.90
1453;DHT22;720;47.738;7.998;2023-12-22T07:16:04;5.90;99.90
1453;DHT22;720;47.738;7.998;2023-12-22T07:18:30;5.80;99.90
1453;DHT22;720;47.738;7.998;2023-12-22T07:20:57;5.80;99.90
1453;DHT22;720;47.738;7.998;2023-12-22T07:23:23;5.60;99.90
1453;DHT22;720;47.738;7.998;2023-12-22T07:25:48;5.70;99.90
1453;DHT22;720;47.738;7.998;2023-12-22T07:28:14;5.80;99.90
1453;DHT22;720;47.738;7.998;2023-12-22T07:30:41;5.80;99.90
1453;DHT22;720;47.738;7.998;2023-12-22T07:33:06;5.70;99.90
1453;DHT22;720;47.738;7.998;2023-12-22T07:35:32;5.80;99.90
1453;DHT22;720;47.738;7.998;2023-12-22T07:37:58;5.80;99.90
1453;DHT22;720;47.738;7.998;2023-12-22T07:40:23;5.90;99.90
1453;DHT22;720;47.738;7.998;2023-12-22T07:42:49;5.80;99.90
1453;DHT22;720;47.738;7.998;2023-12-22T07:45:16;5.70;99.90
1453;DHT22;720;47.738;7.998;2023-12-22T07:47:41;5.70;99.90
1453;DHT22;720;47.738;7.998;2023-12-22T07:50:07;5.60;99.90
1453;DHT22;720;47.738;7.998;2023-12-22T07:52:35;5.60;99.90
1453;DHT22;720;47.738;7.998;2023-12-22T07:55:06;5.50;99.90
1453;DHT22;720;47.738;7.998;2023-12-22T07:57:32;5.50;99.90
1453;DHT22;720;47.738;7.998;2023-12-22T07:59:57;5.60;99.90
1453;DHT22;720;47.738;7.998;2023-12-22T08:02:23;5.60;99.90
1453;DHT22;720;47.738;7.998;2023-12-22T08:04:49;5.60;99.90
1453;DHT22;720;47.738;7.998;2023-12-22T08:07:16;5.60;99.90
1453;DHT22;720;47.738;7.998;2023-12-22T08:09:41;5.70;99.90
1453;DHT22;720;47.738;7.998;2023-12-22T08:12:07;5.60;99.90
1453;DHT22;720;47.738;7.998;2023-12-22T08:14:33;5.60;99.90
1453;DHT22;720;47.738;7.998;2023-12-22T08:16:59;5.70;99.90
1453;DHT22;720;47.738;7.998;2023-12-22T08:19:25;5.70;99.90
1453;DHT22;720;47.738;7.998;2023-12-22T08:21:52;5.80;99.90
1453;DHT22;720;47.738;7.998;2023-12-22T08:24:19;5.90;99.90
1453;DHT22;720;47.738;7.998;2023-12-22T08:26:44;5.90;99.90
1453;DHT22;720;47.738;7.998;2023-12-22T08:29:10;5.80;99.90
1453;DHT22;720;47.738;7.998;2023-12-22T08:31:36;5.90;99.90
1453;DHT22;720;47.738;7.998;2023-12-22T08:34:01;5.90;99.90
1453;DHT22;720;47.738;7.998;2023-12-22T08:36:27;5.90;99.90
1453;DHT22;720;47.738;7.998;2023-12-22T08:38:52;6.00;99.90
1453;DHT22;720;47.738;7.998;2023-12-22T08:41:18;6.10;99.90
1453;DHT22;720;47.738;7.998;2023-12-22T08:43:44;6.20;99.90
1453;DHT22;720;47.738;7.998;2023-12-22T08:46:10;6.20;99.90
1453;DHT22;720;47.738;7.998;2023-12-22T08:48:35;6.10;99.90
1453;DHT22;720;47.738;7.998;2023-12-22T08:51:01;6.00;99.90
1453;DHT22;720;47.738;7.998;2023-12-22T08:53:27;6.10;99.90
1453;DHT22;720;47.738;7.998;2023-12-22T08:55:55;6.00;99.90
1453;DHT22;720;47.738;7.998;2023-12-22T08:58:22;6.00;99.90
1453;DHT22;720;47.738;7.998;2023-12-22T09:00:47;6.00;99.90
1453;DHT22;720;47.738;7.998;2023-12-22T09:03:13;6.10;99.90
1453;DHT22;720;47.738;7.998;2023-12-22T09:05:39;5.90;99.90
1453;DHT22;720;47.738;7.998;2023-12-22T09:08:05;5.90;99.90
1453;DHT22;720;47.738;7.998;2023-12-22T09:10:31;5.90;99.90
1453;DHT22;720;47.738;7.998;2023-12-22T09:12:58;6.00;99.90
1453;DHT22;720;47.738;7.998;2023-12-22T09:15:23;6.20;99.90
1453;DHT22;720;47.738;7.998;2023-12-22T09:17:49;6.20;99.90
1453;DHT22;720;47.738;7.998;2023-12-22T09:20:17;6.20;99.90
1453;DHT22;720;47.738;7.998;2023-12-22T09:22:42;6.20;99.90
1453;DHT22;720;47.738;7.998;2023-12-22T09:25:08;6.20;99.90
1453;DHT22;720;47.738;7.998;2023-12-22T09:27:36;6.20;99.90
1453;DHT22;720;47.738;7.998;2023-12-22T09:30:03;6.10;99.90
1453;DHT22;720;47.738;7.998;2023-12-22T09:32:32;6.20;99.90
1453;DHT22;720;47.738;7.998;2023-12-22T09:34:57;6.20;99.90
1453;DHT22;720;47.738;7.998;2023-12-22T09:37:24;6.00;99.90
1453;DHT22;720;47.738;7.998;2023-12-22T09:39:50;5.90;99.90
1453;DHT22;720;47.738;7.998;2023-12-22T09:42:15;6.00;99.90
1453;DHT22;720;47.738;7.998;2023-12-22T09:44:42;6.10;99.90
1453;DHT22;720;47.738;7.998;2023-12-22T09:47:09;6.00;99.90
1453;DHT22;720;47.738;7.998;2023-12-22T09:49:38;5.80;99.90
1453;DHT22;720;47.738;7.998;2023-12-22T09:52:06;6.00;99.90
1453;DHT22;720;47.738;7.998;2023-12-22T09:54:32;6.20;99.90
1453;DHT22;720;47.738;7.998;2023-12-22T09:56:59;6.30;99.90
1453;DHT22;720;47.738;7.998;2023-12-22T09:59:27;6.40;99.90
1453;DHT22;720;47.738;7.998;2023-12-22T10:01:55;6.50;99.90
1453;DHT22;720;47.738;7.998;2023-12-22T10:04:21;6.50;99.90
1453;DHT22;720;47.738;7.998;2023-12-22T10:06:48;6.50;99.90
1453;DHT22;720;47.738;7.998;2023-12-22T10:09:15;6.40;99.90
1453;DHT22;720;47.738;7.998;2023-12-22T10:11:43;6.20;99.90
1453;DHT22;720;47.738;7.998;2023-12-22T10:14:10;6.20;99.90
1453;DHT22;720;47.738;7.998;2023-12-22T10:16:38;6.10;99.90
1453;DHT22;720;47.738;7.998;2023-12-22T10:19:05;6.30;99.90
1453;DHT22;720;47.738;7.998;2023-12-22T10:21:32;6.50;99.90
1453;DHT22;720;47.738;7.998;2023-12-22T10:23:58;6.60;99.90
1453;DHT22;720;47.738;7.998;2023-12-22T10:26:23;6.60;99.90
1453;DHT22;720;47.738;7.998;2023-12-22T10:28:50;6.50;99.90
1453;DHT22;720;47.738;7.998;2023-12-22T10:31:17;6.60;99.90
1453;DHT22;720;47.738;7.998;2023-12-22T10:33:43;6.50;99.90
1453;DHT22;720;47.738;7.998;2023-12-22T10:36:09;6.50;99.90
1453;DHT22;720;47.738;7.998;2023-12-22T10:38:35;6.50;99.90
1453;DHT22;720;47.738;7.998;2023-12-22T10:41:02;6.50;99.90
1453;DHT22;720;47.738;7.998;2023-12-22T10:43:28;6.50;99.90
1453;DHT22;720;47.738;7.998;2023-12-22T10:45:54;6.60;99.90
1453;DHT22;720;47.738;7.998;2023-12-22T10:48:20;6.70;99.90
1453;DHT22;720;47.738;7.998;2023-12-22T10:50:46;6.70;99.90
1453;DHT22;720;47.738;7.998;2023-12-22T10:53:12;6.70;99.90
1453;DHT22;720;47.738;7.998;2023-12-22T10:55:38;6.70;99.90
1453;DHT22;720;47.738;7.998;2023-12-22T10:58:05;6.80;99.90
1453;DHT22;720;47.738;7.998;2023-12-22T11:00:32;6.90;99.90
1453;DHT22;720;47.738;7.998;2023-12-22T11:03:01;6.90;99.90
1453;DHT22;720;47.738;7.998;2023-12-22T11:05:33;7.00;99.90
1453;DHT22;720;47.738;7.998;2023-12-22T11:08:00;6.90;99.90
1453;DHT22;720;47.738;7.998;2023-12-22T11:10:31;6.80;99.90
1453;DHT22;720;47.738;7.998;2023-12-22T11:12:57;6.80;99.90
1453;DHT22;720;47.738;7.998;2023-12-22T11:15:24;6.80;99.90
1453;DHT22;720;47.738;7.998;2023-12-22T11:17:52;6.80;99.90
1453;DHT22;720;47.738;7.998;2023-12-22T11:20:18;6.80;99.90
1453;DHT22;720;47.738;7.998;2023-12-22T11:22:44;6.80;99.90
1453;DHT22;720;47.738;7.998;2023-12-22T11:25:10;6.70;99.90
1453;DHT22;720;47.738;7.998;2023-12-22T11:27:37;6.70;99.90
1453;DHT22;720;47.738;7.998;2023-12-22T11:30:04;6.70;99.90
1453;DHT22;720;47.738;7.998;2023-12-22T11:32:34;6.80;99.90
1453;DHT22;720;47.738;7.998;2023-12-22T11:34:59;6.80;99.90
1453;DHT22;720;47.738;7.998;2023-12-22T11:37:25;6.90;99.90
1453;DHT22;720;47.738;7.998;2023-12-22T11:39:51;6.80;99.90
1453;DHT22;720;47.738;7.998;2023-12-22T11:42:42;6.80;99.90
1453;DHT22;720;47.738;7.998;2023-12-22T11:45:11;6.80;99.90
1453;DHT22;720;47.738;7.998;2023-12-22T11:47:38;6.90;99.90
1453;DHT22;720;47.738;7.998;2023-12-22T11:50:12;6.90;99.90
1453;DHT22;720;47.738;7.998;2023-12-22T11:52:38;7.10;99.90
1453;DHT22;720;47.738;7.998;2023-12-22T11:55:04;7.00;99.90
1453;DHT22;720;47.738;7.998;2023-12-22T12:00:02;7.00;99.90
1453;DHT22;720;47.738;7.998;2023-12-22T12:02:36;6.70;99.90
1453;DHT22;720;47.738;7.998;2023-12-22T12:05:03;6.70;99.90
1453;DHT22;720;47.738;7.998;2023-12-22T12:07:45;6.90;99.90
1453;DHT22;720;47.738;7.998;2023-12-22T12:10:36;7.00;99.90
1453;DHT22;720;47.738;7.998;2023-12-22T12:13:08;7.10;99.90
1453;DHT22;720;47.738;7.998;2023-12-22T12:15:35;7.00;99.90
1453;DHT22;720;47.738;7.998;2023-12-22T12:18:01;6.90;99.90
1453;DHT22;720;47.738;7.998;2023-12-22T12:20:27;7.10;99.90
1453;DHT22;720;47.738;7.998;2023-12-22T12:22:54;6.80;99.90
1453;DHT22;720;47.738;7.998;2023-12-22T12:25:22;6.70;99.90
1453;DHT22;720;47.738;7.998;2023-12-22T12:28:05;6.90;99.90
1453;DHT22;720;47.738;7.998;2023-12-22T12:30:32;7.10;99.90
1453;DHT22;720;47.738;7.998;2023-12-22T12:33:11;7.00;99.90
1453;DHT22;720;47.738;7.998;2023-12-22T12:35:41;7.00;99.90
1453;DHT22;720;47.738;7.998;2023-12-22T12:38:09;7.00;99.90
1453;DHT22;720;47.738;7.998;2023-12-22T12:40:38;7.00;99.90
1453;DHT22;720;47.738;7.998;2023-12-22T12:43:05;7.00;99.90
1453;DHT22;720;47.738;7.998;2023-12-22T12:45:30;7.10;99.90
1453;DHT22;720;47.738;7.998;2023-12-22T12:48:00;7.10;99.90
1453;DHT22;720;47.738;7.998;2023-12-22T12:50:26;7.10;99.90
1453;DHT22;720;47.738;7.998;2023-12-22T12:52:54;7.10;99.90
1453;DHT22;720;47.738;7.998;2023-12-22T12:55:21;7.10;99.90
1453;DHT22;720;47.738;7.998;2023-12-22T12:57:55;7.20;99.90
1453;DHT22;720;47.738;7.998;2023-12-22T13:00:31;7.10;99.90
1453;DHT22;720;47.738;7.998;2023-12-22T13:03:04;7.10;99.90
1453;DHT22;720;47.738;7.998;2023-12-22T13:05:31;7.10;99.90
1453;DHT22;720;47.738;7.998;2023-12-22T13:08:26;7.10;99.90
1453;DHT22;720;47.738;7.998;2023-12-22T13:11:00;7.00;99.90
1453;DHT22;720;47.738;7.998;2023-12-22T13:13:26;7.00;99.90
1453;DHT22;720;47.738;7.998;2023-12-22T13:15:52;7.10;99.90
1453;DHT22;720;47.738;7.998;2023-12-22T13:18:18;7.10;99.90
1453;DHT22;720;47.738;7.998;2023-12-22T13:20:44;7.10;99.90
1453;DHT22;720;47.738;7.998;2023-12-22T13:23:09;7.20;99.90
1453;DHT22;720;47.738;7.998;2023-12-22T13:25:39;7.30;99.90
1453;DHT22;720;47.738;7.998;2023-12-22T13:28:05;7.30;99.90
1453;DHT22;720;47.738;7.998;2023-12-22T13:30:36;7.30;99.90
1453;DHT22;720;47.738;7.998;2023-12-22T13:33:06;7.20;99.90
1453;DHT22;720;47.738;7.998;2023-12-22T13:35:31;7.20;99.90
1453;DHT22;720;47.738;7.998;2023-12-22T13:37:58;7.30;99.90
1453;DHT22;720;47.738;7.998;2023-12-22T13:40:24;7.20;99.90
1453;DHT22;720;47.738;7.998;2023-12-22T13:42:56;7.10;99.90
1453;DHT22;720;47.738;7.998;2023-12-22T13:45:26;7.20;99.90
1453;DHT22;720;47.738;7.998;2023-12-22T13:47:52;7.30;99.90
1453;DHT22;720;47.738;7.998;2023-12-22T13:50:18;7.30;99.90
1453;DHT22;720;47.738;7.998;2023-12-22T13:52:44;7.30;99.90
1453;DHT22;720;47.738;7.998;2023-12-22T13:55:14;7.40;99.90
1453;DHT22;720;47.738;7.998;2023-12-22T13:57:41;7.10;99.90
1453;DHT22;720;47.738;7.998;2023-12-22T14:00:28;6.90;99.90
1453;DHT22;720;47.738;7.998;2023-12-22T14:02:54;6.80;99.90
1453;DHT22;720;47.738;7.998;2023-12-22T14:05:20;6.60;99.90
1453;DHT22;720;47.738;7.998;2023-12-22T14:07:46;6.80;99.90
1453;DHT22;720;47.738;7.998;2023-12-22T14:10:13;6.90;99.90
1453;DHT22;720;47.738;7.998;2023-12-22T14:12:39;7.00;99.90
1453;DHT22;720;47.738;7.998;2023-12-22T14:15:11;7.10;99.90
1453;DHT22;720;47.738;7.998;2023-12-22T14:17:38;7.20;99.90
1453;DHT22;720;47.738;7.998;2023-12-22T14:20:04;7.00;99.90
1453;DHT22;720;47.738;7.998;2023-12-22T14:22:38;7.10;99.90
1453;DHT22;720;47.738;7.998;2023-12-22T14:25:04;7.20;99.90
1453;DHT22;720;47.738;7.998;2023-12-22T14:27:30;7.10;99.90
1453;DHT22;720;47.738;7.998;2023-12-22T14:29:55;7.20;99.90
1453;DHT22;720;47.738;7.998;2023-12-22T14:32:21;7.30;99.90
1453;DHT22;720;47.738;7.998;2023-12-22T14:34:48;7.40;99.90
1453;DHT22;720;47.738;7.998;2023-12-22T14:37:14;7.50;99.90
1453;DHT22;720;47.738;7.998;2023-12-22T14:39:42;7.40;99.90
1453;DHT22;720;47.738;7.998;2023-12-22T14:42:07;7.40;99.90
1453;DHT22;720;47.738;7.998;2023-12-22T14:44:33;7.50;99.90
1453;DHT22;720;47.738;7.998;2023-12-22T14:46:59;7.30;99.90
1453;DHT22;720;47.738;7.998;2023-12-22T14:49:24;7.40;99.90
1453;DHT22;720;47.738;7.998;2023-12-22T14:51:50;7.40;99.90
1453;DHT22;720;47.738;7.998;2023-12-22T14:54:19;7.50;99.90
1453;DHT22;720;47.738;7.998;2023-12-22T14:56:44;7.50;99.90
1453;DHT22;720;47.738;7.998;2023-12-22T14:59:10;7.50;99.90
1453;DHT22;720;47.738;7.998;2023-12-22T15:01:37;7.40;99.90
1453;DHT22;720;47.738;7.998;2023-12-22T15:04:04;7.30;99.90
1453;DHT22;720;47.738;7.998;2023-12-22T15:06:31;7.40;99.90
1453;DHT22;720;47.738;7.998;2023-12-22T15:08:57;7.40;99.90
1453;DHT22;720;47.738;7.998;2023-12-22T15:11:26;7.40;99.90
1453;DHT22;720;47.738;7.998;2023-12-22T15:13:51;7.30;99.90
1453;DHT22;720;47.738;7.998;2023-12-22T15:16:17;7.30;99.90
1453;DHT22;720;47.738;7.998;2023-12-22T15:18:42;7.30;99.90
1453;DHT22;720;47.738;7.998;2023-12-22T15:21:08;7.40;99.90
1453;DHT22;720;47.738;7.998;2023-12-22T15:23:34;7.50;99.90
1453;DHT22;720;47.738;7.998;2023-12-22T15:26:00;7.50;99.90
1453;DHT22;720;47.738;7.998;2023-12-22T15:28:25;7.50;99.90
1453;DHT22;720;47.738;7.998;2023-12-22T15:30:54;7.60;99.90
1453;DHT22;720;47.738;7.998;2023-12-22T15:33:19;7.60;99.90
1453;DHT22;720;47.738;7.998;2023-12-22T15:35:45;7.40;99.90
1453;DHT22;720;47.738;7.998;2023-12-22T15:38:11;7.40;99.90
1453;DHT22;720;47.738;7.998;2023-12-22T15:40:39;7.50;99.90
1453;DHT22;720;47.738;7.998;2023-12-22T15:43:04;7.50;99.90
1453;DHT22;720;47.738;7.998;2023-12-22T15:45:30;7.60;99.90
1453;DHT22;720;47.738;7.998;2023-12-22T15:47:56;7.60;99.90
1453;DHT22;720;47.738;7.998;2023-12-22T15:50:22;7.70;99.90
1453;DHT22;720;47.738;7.998;2023-12-22T15:52:48;7.60;99.90
1453;DHT22;720;47.738;7.998;2023-12-22T15:55:16;7.30;99.90
1453;DHT22;720;47.738;7.998;2023-12-22T15:57:41;7.30;99.90
1453;DHT22;720;47.738;7.998;2023-12-22T16:00:07;7.10;99.90
1453;DHT22;720;47.738;7.998;2023-12-22T16:02:33;7.00;99.90
1453;DHT22;720;47.738;7.998;2023-12-22T16:05:04;7.10;99.90
1453;DHT22;720;47.738;7.998;2023-12-22T16:07:29;7.30;99.90
1453;DHT22;720;47.738;7.998;2023-12-22T16:09:55;7.40;99.90
1453;DHT22;720;47.738;7.998;2023-12-22T16:12:21;7.40;99.90
1453;DHT22;720;47.738;7.998;2023-12-22T16:14:47;7.50;99.90
1453;DHT22;720;47.738;7.998;2023-12-22T16:17:15;7.50;99.90
1453;DHT22;720;47.738;7.998;2023-12-22T16:19:41;7.40;99.90
1453;DHT22;720;47.738;7.998;2023-12-22T16:22:06;7.40;99.90
1453;DHT22;720;47.738;7.998;2023-12-22T16:24:32;7.30;99.90
1453;DHT22;720;47.738;7.998;2023-12-22T16:26:58;7.10;99.90
1453;DHT22;720;47.738;7.998;2023-12-22T16:29:24;7.10;99.90
1453;DHT22;720;47.738;7.998;2023-12-22T16:31:49;7.30;99.90
1453;DHT22;720;47.738;7.998;2023-12-22T16:34:15;7.30;99.90
1453;DHT22;720;47.738;7.998;2023-12-22T16:36:44;7.50;99.90